Flugplatz Grefrath-Niershorst

Für EDLF sind keine METAR/TAF Berichte vorhanden.
Es werden die Flugwettermeldungen vom Flugplatz Mönchengladbach in 15 km Entfernung angezeigt.

Bericht für EDLN

vom 07.03. um 01:50 UTC

Wind 1 kt aus 300°

Sichtweite 10 km oder mehr

keine Wolken

Temperatur -3.0°C

Taupunkt -5.0°C

Luftfeuchtigkeit 86%

Luftdruck 1028 hPa

EDLN 070150Z AUTO 30001KT 9999 // NCD M03/M05 Q1028

Prognose für EDLN

vom 06.03. um 17:00 UTC

Am 06.03. zwischen 18:00 UTC und 03:00 UTC

Wind 4 kt aus 40°

Sichtweite 10 km oder mehr

keine signifikanten Wettererscheinungen

keine Wolken

TAF EDLN 061700Z 0618/0703 04004KT CAVOK
Impressum